createdAt,value
2018-10-19T00:01:49.881Z,79.95
2018-10-19T00:04:18.729Z,80.94
2018-10-19T00:06:47.127Z,80.65
2018-10-19T00:09:15.895Z,81.58
2018-10-19T00:11:44.301Z,81.20
2018-10-19T00:14:13.027Z,81.57
2018-10-19T00:16:41.492Z,81.32
2018-10-19T00:19:10.370Z,82.34
2018-10-19T00:21:38.787Z,81.82
2018-10-19T00:24:07.332Z,81.85
2018-10-19T00:26:36.645Z,82.66
2018-10-19T00:29:05.719Z,83.07
2018-10-19T00:31:34.102Z,83.56
2018-10-19T00:34:02.529Z,83.17
2018-10-19T00:36:31.655Z,83.30
2018-10-19T00:39:01.189Z,83.93
2018-10-19T00:41:29.615Z,83.31
2018-10-19T00:43:58.059Z,83.94
2018-10-19T00:46:26.530Z,84.40
2018-10-19T00:48:55.014Z,84.34
2018-10-19T00:51:23.411Z,84.19
2018-10-19T00:53:52.177Z,84.67
2018-10-19T00:56:20.683Z,85.21
2018-10-19T00:58:49.525Z,85.35
2018-10-19T01:01:17.953Z,85.42
2018-10-19T01:03:46.730Z,85.07
2018-10-19T01:06:15.269Z,86.19
2018-10-19T01:08:43.775Z,86.35
2018-10-19T01:11:12.415Z,86.04
2018-10-19T01:13:40.793Z,86.23
2018-10-19T01:16:09.454Z,86.29
2018-10-19T01:18:38.178Z,86.24
2018-10-19T01:21:07.015Z,85.78
2018-10-19T01:23:35.672Z,86.05
2018-10-19T01:26:04.092Z,86.53
2018-10-19T01:28:32.878Z,86.54
2018-10-19T01:31:01.764Z,86.80
2018-10-19T01:33:30.162Z,86.36
2018-10-19T01:35:58.570Z,86.55
2018-10-19T01:38:27.614Z,86.92
2018-10-19T01:40:56.065Z,87.44
2018-10-19T01:43:24.454Z,88.16
2018-10-19T01:45:56.289Z,88.15
2018-10-19T01:48:25.253Z,88.40
2018-10-19T01:50:53.669Z,88.17
2018-10-19T01:53:22.106Z,88.85
2018-10-19T01:55:50.646Z,88.82
2018-10-19T01:58:19.106Z,88.67
2018-10-19T02:00:47.582Z,88.18
2018-10-19T02:03:15.974Z,88.07
2018-10-19T02:05:44.432Z,88.53
2018-10-19T02:08:12.784Z,88.00
2018-10-19T02:10:41.191Z,88.44
2018-10-19T02:13:10.477Z,89.87
2018-10-19T02:15:40.202Z,89.43
2018-10-19T02:18:08.763Z,91.16
2018-10-19T02:20:38.501Z,90.79
2018-10-19T02:23:07.095Z,90.03
2018-10-19T02:25:35.465Z,90.08
2018-10-19T02:28:04.599Z,90.44
2018-10-19T02:30:33.866Z,90.05
2018-10-19T02:33:02.524Z,90.68
2018-10-19T02:35:30.836Z,90.31
2018-10-19T02:37:59.969Z,91.71
2018-10-19T02:40:28.384Z,91.32
2018-10-19T02:42:56.817Z,91.73
2018-10-19T02:45:25.252Z,91.51
2018-10-19T02:47:53.957Z,91.57
2018-10-19T02:50:22.374Z,92.24
2018-10-19T02:52:50.825Z,92.66
2018-10-19T02:55:19.248Z,93.27
2018-10-19T02:57:47.683Z,92.59
2018-10-19T03:00:16.072Z,92.57
2018-10-19T03:02:44.474Z,92.42
2018-10-19T03:05:12.959Z,93.49
2018-10-19T03:07:41.395Z,93.25
2018-10-19T03:10:10.338Z,93.72
2018-10-19T03:12:39.287Z,93.64
2018-10-19T03:15:08.678Z,92.96
2018-10-19T03:17:37.047Z,93.16
2018-10-19T03:20:07.018Z,93.09
2018-10-19T03:22:35.696Z,93.53
2018-10-19T03:25:05.128Z,93.52
2018-10-19T03:27:34.120Z,93.59
2018-10-19T03:30:02.506Z,93.98
2018-10-19T03:32:30.889Z,93.32
2018-10-19T03:34:59.903Z,93.17
2018-10-19T03:37:28.283Z,93.50
2018-10-19T03:39:56.833Z,93.37
2018-10-19T03:42:25.310Z,93.85
2018-10-19T03:44:53.906Z,93.60
2018-10-19T03:47:22.317Z,93.63
2018-10-19T03:49:50.748Z,93.09
2018-10-19T03:52:19.129Z,93.27
2018-10-19T03:54:47.576Z,92.77
2018-10-19T03:57:16.002Z,93.13
2018-10-19T04:00:00.083Z,93.51
2018-10-19T04:02:28.582Z,92.73
2018-10-19T04:04:57.619Z,93.44
2018-10-19T04:07:26.532Z,92.87
2018-10-19T04:09:55.252Z,93.25
2018-10-19T04:12:23.670Z,93.55
2018-10-19T04:14:52.049Z,93.32
2018-10-19T04:17:20.977Z,93.65
2018-10-19T04:19:49.418Z,93.54
2018-10-19T04:22:18.508Z,94.06
2018-10-19T04:24:47.447Z,94.78
2018-10-19T04:27:15.924Z,94.85
2018-10-19T04:29:44.294Z,94.27
2018-10-19T04:32:13.981Z,94.95
2018-10-19T04:34:42.395Z,95.23
2018-10-19T04:37:10.852Z,95.05
2018-10-19T04:39:39.273Z,94.69
2018-10-19T04:42:07.992Z,95.43
2018-10-19T04:44:36.273Z,95.61
2018-10-19T04:47:04.979Z,96.16
2018-10-19T04:49:33.646Z,96.14
2018-10-19T04:52:02.207Z,96.76
2018-10-19T04:54:31.223Z,96.37
2018-10-19T04:57:00.110Z,95.95
2018-10-19T04:59:28.602Z,96.13
2018-10-19T05:01:57.014Z,95.70
2018-10-19T05:04:25.441Z,95.73
2018-10-19T05:06:53.934Z,97.00
2018-10-19T05:09:22.394Z,97.06
2018-10-19T05:11:50.991Z,96.84
2018-10-19T05:14:19.622Z,96.83
2018-10-19T05:16:47.917Z,96.55
2018-10-19T05:19:16.423Z,97.19
2018-10-19T05:21:44.904Z,96.89
2018-10-19T05:24:13.358Z,97.90
2018-10-19T05:26:41.743Z,98.39
2018-10-19T05:29:10.795Z,98.89
2018-10-19T05:31:39.254Z,99.71
2018-10-19T05:34:07.923Z,99.89
2018-10-19T05:36:36.352Z,99.39
2018-10-19T05:39:07.563Z,99.64
2018-10-19T05:41:36.051Z,99.78
2018-10-19T05:44:04.749Z,100.00
2018-10-19T05:46:33.156Z,100.00
2018-10-19T05:49:01.556Z,100.00
2018-10-19T05:51:29.995Z,100.00
2018-10-19T05:53:58.387Z,100.00
2018-10-19T05:56:26.853Z,99.37
2018-10-19T05:58:55.337Z,99.20
2018-10-19T06:01:23.778Z,99.30
2018-10-19T06:03:52.138Z,98.31
2018-10-19T06:06:20.553Z,98.74
2018-10-19T06:08:48.949Z,98.47
2018-10-19T06:11:17.432Z,98.94
2018-10-19T06:13:46.010Z,98.82
2018-10-19T06:16:14.346Z,98.87
2018-10-19T06:18:42.720Z,99.31
2018-10-19T06:21:11.148Z,99.43
2018-10-19T06:23:39.550Z,99.20
2018-10-19T06:26:08.176Z,99.40
2018-10-19T06:28:36.465Z,98.84
2018-10-19T06:31:05.150Z,99.50
2018-10-19T06:33:33.535Z,99.75
2018-10-19T06:36:02.347Z,98.75
2018-10-19T06:38:30.726Z,98.68
2018-10-19T06:40:59.058Z,99.60
2018-10-19T06:43:27.411Z,98.84
2018-10-19T06:45:55.838Z,99.66
2018-10-19T06:48:24.252Z,99.42
2018-10-19T06:50:52.602Z,99.37
2018-10-19T06:53:21.017Z,98.48
2018-10-19T06:55:49.471Z,97.88
2018-10-19T06:58:18.242Z,96.35
2018-10-19T07:00:46.700Z,95.79
2018-10-19T07:03:15.226Z,96.32
2018-10-19T07:05:43.613Z,95.67
2018-10-19T07:08:12.842Z,96.09
2018-10-19T07:10:41.252Z,95.72
2018-10-19T07:13:09.770Z,96.00
2018-10-19T07:15:38.214Z,96.13
2018-10-19T07:18:06.623Z,97.00
2018-10-19T07:20:35.038Z,97.13
2018-10-19T07:23:04.238Z,96.76
2018-10-19T07:25:32.652Z,96.41
2018-10-19T07:28:01.035Z,96.68
2018-10-19T07:30:29.571Z,95.99
2018-10-19T07:32:58.165Z,95.52
2018-10-19T07:35:26.749Z,95.23
2018-10-19T07:37:55.244Z,94.92
2018-10-19T07:40:23.691Z,94.05
2018-10-19T07:42:52.091Z,94.23
2018-10-19T07:45:20.481Z,92.73
2018-10-19T07:47:49.046Z,92.30
2018-10-19T07:50:17.449Z,90.47
2018-10-19T07:52:46.024Z,90.44
2018-10-19T07:55:14.384Z,89.23
2018-10-19T07:57:42.875Z,89.03
2018-10-19T08:00:11.547Z,88.24
2018-10-19T08:02:39.972Z,88.68
2018-10-19T08:05:09.128Z,87.88
2018-10-19T08:07:37.539Z,86.75
2018-10-19T08:10:07.518Z,86.98
2018-10-19T08:12:36.069Z,85.95
2018-10-19T08:15:04.566Z,84.47
2018-10-19T08:17:33.074Z,83.83
2018-10-19T08:20:01.977Z,83.04
2018-10-19T08:22:30.503Z,83.79
2018-10-19T08:24:58.919Z,81.66
2018-10-19T08:27:27.362Z,80.76
2018-10-19T08:29:55.795Z,78.93
2018-10-19T08:32:24.157Z,78.40
2018-10-19T08:34:52.606Z,77.84
2018-10-19T08:37:21.029Z,77.09
2018-10-19T08:39:49.382Z,79.00
2018-10-19T08:42:18.008Z,77.91
2018-10-19T08:44:46.823Z,77.09
2018-10-19T08:47:15.472Z,76.20
2018-10-19T08:49:43.910Z,76.09
2018-10-19T08:52:12.375Z,73.91
2018-10-19T08:54:40.854Z,71.25
2018-10-19T08:57:09.354Z,73.11
2018-10-19T08:59:37.849Z,67.39
2018-10-19T09:02:06.267Z,65.11
2018-10-19T09:04:34.696Z,63.98
2018-10-19T09:07:03.180Z,64.88
2018-10-19T09:09:31.594Z,66.68
2018-10-19T09:12:00.037Z,68.03
2018-10-19T09:14:39.660Z,69.74
2018-10-19T09:17:08.225Z,69.89
2018-10-19T09:19:36.646Z,66.46
2018-10-19T09:22:05.439Z,65.85
2018-10-19T09:24:33.886Z,68.15
2018-10-19T09:27:02.348Z,68.61
2018-10-19T09:29:30.813Z,69.76
2018-10-19T09:31:59.211Z,69.80
2018-10-19T09:34:27.689Z,68.30
2018-10-19T09:36:56.228Z,67.78
2018-10-19T09:39:24.610Z,68.25
2018-10-19T09:41:53.240Z,66.81
2018-10-19T09:44:21.664Z,68.98
2018-10-19T09:46:50.170Z,68.36
2018-10-19T09:49:18.661Z,67.93
2018-10-19T09:51:47.350Z,67.93
2018-10-19T09:54:15.726Z,68.39
2018-10-19T09:56:44.195Z,67.54
2018-10-19T09:59:12.726Z,66.16
2018-10-19T10:01:41.777Z,66.25
2018-10-19T10:04:10.204Z,67.20
2018-10-19T10:06:38.989Z,67.05
2018-10-19T10:09:12.299Z,66.42
2018-10-19T10:11:41.032Z,65.86
2018-10-19T10:14:10.366Z,65.14
2018-10-19T10:17:09.414Z,65.29
2018-10-19T10:19:37.971Z,65.90
2018-10-19T10:22:06.764Z,66.81
2018-10-19T10:24:35.600Z,66.15
2018-10-19T10:27:03.960Z,65.99
2018-10-19T10:29:32.411Z,65.84
2018-10-19T10:32:01.487Z,64.54
2018-10-19T10:34:29.946Z,65.61
2018-10-19T10:36:58.398Z,64.61
2018-10-19T10:39:26.799Z,63.35
2018-10-19T10:41:55.205Z,63.76
2018-10-19T10:44:23.571Z,64.69
2018-10-19T10:46:52.165Z,63.09
2018-10-19T10:49:20.537Z,64.39
2018-10-19T10:51:48.887Z,60.08
2018-10-19T10:54:17.306Z,60.23
2018-10-19T10:56:45.651Z,59.81
2018-10-19T10:59:14.023Z,61.96
2018-10-19T11:01:42.406Z,62.89
2018-10-19T11:04:11.060Z,63.66
2018-10-19T11:06:39.446Z,63.37
2018-10-19T11:09:10.897Z,63.46
2018-10-19T11:11:39.318Z,63.74
2018-10-19T11:14:07.737Z,63.50
2018-10-19T11:16:36.160Z,62.78
2018-10-19T11:19:04.819Z,62.49
2018-10-19T11:21:34.071Z,62.21
2018-10-19T11:24:03.157Z,61.88
2018-10-19T11:26:31.624Z,61.90
2018-10-19T11:28:59.955Z,61.67
2018-10-19T11:31:28.477Z,61.17
2018-10-19T11:33:56.941Z,62.24
2018-10-19T11:36:25.369Z,61.32
2018-10-19T11:38:54.542Z,61.10
2018-10-19T11:41:23.127Z,62.34
2018-10-19T11:43:51.620Z,62.45
2018-10-19T11:46:21.022Z,62.49
2018-10-19T11:48:50.459Z,62.36
2018-10-19T11:51:19.553Z,61.60
2018-10-19T11:53:48.628Z,61.65
2018-10-19T11:56:17.635Z,62.05
2018-10-19T11:58:46.820Z,62.22
2018-10-19T12:01:16.049Z,62.02
2018-10-19T12:03:46.234Z,61.66
2018-10-19T12:06:15.039Z,62.40
2018-10-19T12:08:46.518Z,62.34
2018-10-19T12:11:15.614Z,61.98
2018-10-19T12:13:45.117Z,61.58
2018-10-19T12:16:15.863Z,61.06
2018-10-19T12:18:45.598Z,61.83
2018-10-19T12:21:14.793Z,60.86
2018-10-19T12:23:44.020Z,60.91
2018-10-19T12:26:13.737Z,60.56
2018-10-19T12:28:42.832Z,61.67
2018-10-19T12:31:12.488Z,61.04
2018-10-19T12:33:41.196Z,61.56
2018-10-19T12:36:09.839Z,61.61
2018-10-19T12:38:38.422Z,61.04
2018-10-19T12:41:07.125Z,61.26
2018-10-19T12:43:35.727Z,60.61
2018-10-19T12:46:28.275Z,60.86
2018-10-19T12:48:57.307Z,60.77
2018-10-19T12:51:25.930Z,61.39
2018-10-19T12:53:54.693Z,61.10
2018-10-19T12:56:23.631Z,61.17
2018-10-19T12:58:53.419Z,60.15
2018-10-19T13:01:23.232Z,60.42
2018-10-19T13:03:51.893Z,60.47
2018-10-19T13:06:20.392Z,60.85
2018-10-19T13:08:49.081Z,60.44
2018-10-19T13:11:17.673Z,60.15
2018-10-19T13:13:46.262Z,59.77
2018-10-19T13:16:15.093Z,60.32
2018-10-19T13:18:43.836Z,59.72
2018-10-19T13:21:12.568Z,59.73
2018-10-19T13:23:41.175Z,59.57
2018-10-19T13:26:10.229Z,59.74
2018-10-19T13:28:38.975Z,59.74
2018-10-19T13:31:07.663Z,59.78
2018-10-19T13:33:36.639Z,60.64
2018-10-19T13:36:05.694Z,60.69
2018-10-19T13:38:34.102Z,60.48
2018-10-19T13:41:02.639Z,59.73
2018-10-19T13:43:31.201Z,60.60
2018-10-19T13:45:59.980Z,60.20
2018-10-19T13:48:28.584Z,60.03
2018-10-19T13:50:57.313Z,59.95
2018-10-19T13:53:26.039Z,60.01
2018-10-19T13:55:54.709Z,59.98
2018-10-19T13:58:23.583Z,60.79
2018-10-19T14:00:52.470Z,60.49
2018-10-19T14:03:21.218Z,60.80
2018-10-19T14:05:49.800Z,60.42
2018-10-19T14:08:19.063Z,60.15
2018-10-19T14:10:48.362Z,60.58
2018-10-19T14:13:17.673Z,60.72
2018-10-19T14:15:46.479Z,60.81
2018-10-19T14:18:15.307Z,60.92
2018-10-19T14:20:44.569Z,61.03
2018-10-19T14:23:13.507Z,60.34
2018-10-19T14:25:42.562Z,61.08
2018-10-19T14:28:11.438Z,61.34
2018-10-19T14:30:40.643Z,60.38
2018-10-19T14:33:09.636Z,61.45
2018-10-19T14:35:38.687Z,61.50
2018-10-19T14:38:07.551Z,60.78
2018-10-19T14:40:36.540Z,60.79
2018-10-19T14:43:05.326Z,61.45
2018-10-19T14:45:34.376Z,61.61
2018-10-19T14:48:03.497Z,61.64
2018-10-19T14:50:32.539Z,61.50
2018-10-19T14:53:01.924Z,61.69
2018-10-19T14:55:30.964Z,61.94
2018-10-19T14:58:01.132Z,61.34
2018-10-19T15:00:30.750Z,61.70
2018-10-19T15:02:59.875Z,61.76
2018-10-19T15:05:29.297Z,61.70
2018-10-19T15:07:58.660Z,62.12
2018-10-19T15:10:28.253Z,62.19
2018-10-19T15:12:57.073Z,61.63
2018-10-19T15:15:25.748Z,62.37
2018-10-19T15:17:54.911Z,62.01
2018-10-19T15:20:23.912Z,62.73
2018-10-19T15:22:54.962Z,61.93
2018-10-19T15:25:24.445Z,62.91
2018-10-19T15:27:53.039Z,62.64
2018-10-19T15:30:21.929Z,62.92
2018-10-19T15:32:50.522Z,62.99
2018-10-19T15:35:19.298Z,63.59
2018-10-19T15:37:47.987Z,63.49
2018-10-19T15:40:16.569Z,63.52
2018-10-19T15:42:45.868Z,64.15
2018-10-19T15:45:14.859Z,64.40
2018-10-19T15:47:43.519Z,64.99
2018-10-19T15:50:12.862Z,64.88
2018-10-19T15:52:41.632Z,64.86
2018-10-19T15:55:10.327Z,65.80
2018-10-19T15:57:38.943Z,65.65
2018-10-19T16:00:09.394Z,66.39
2018-10-19T16:02:38.224Z,66.87
2018-10-19T16:05:07.584Z,67.16
2018-10-19T16:07:36.619Z,67.25
2018-10-19T16:10:06.501Z,67.39
2018-10-19T16:12:35.227Z,67.74
2018-10-19T16:15:04.433Z,67.88
2018-10-19T16:17:33.169Z,68.12
2018-10-19T16:20:01.971Z,68.18
2018-10-19T16:22:31.589Z,68.36
2018-10-19T16:25:00.363Z,68.68
2018-10-19T16:27:29.515Z,69.53
2018-10-19T16:29:58.148Z,69.85
2018-10-19T16:32:26.729Z,70.25
2018-10-19T16:34:55.674Z,70.39
2018-10-19T16:37:24.427Z,71.09
2018-10-19T16:39:53.118Z,70.75
2018-10-19T16:42:21.709Z,71.57
2018-10-19T16:44:50.723Z,71.20
2018-10-19T16:47:20.652Z,71.60
2018-10-19T16:49:53.262Z,72.14
2018-10-19T16:52:22.219Z,71.53
2018-10-19T16:54:51.536Z,71.78
2018-10-19T16:57:20.919Z,72.10
2018-10-19T16:59:49.499Z,73.04
2018-10-19T17:02:18.021Z,73.14
2018-10-19T17:04:48.493Z,72.96
2018-10-19T17:07:17.056Z,73.08
2018-10-19T17:09:45.940Z,72.86
2018-10-19T17:12:15.096Z,73.56
2018-10-19T17:14:43.997Z,73.19
2018-10-19T17:17:12.846Z,73.48
2018-10-19T17:19:41.860Z,74.38
2018-10-19T17:22:10.454Z,74.15
2018-10-19T17:24:39.907Z,74.62
2018-10-19T17:27:09.053Z,74.98
2018-10-19T17:29:37.845Z,75.08
2018-10-19T17:32:06.625Z,75.52
2018-10-19T17:34:35.431Z,75.88
2018-10-19T17:37:04.607Z,76.31
2018-10-19T17:39:33.489Z,76.55
2018-10-19T17:42:02.067Z,76.32
2018-10-19T17:44:30.771Z,76.09
2018-10-19T17:46:59.583Z,76.78
2018-10-19T17:49:28.932Z,76.75
2018-10-19T17:51:57.764Z,77.69
2018-10-19T17:54:27.698Z,77.41
2018-10-19T17:56:56.247Z,78.03
2018-10-19T17:59:25.109Z,77.93
2018-10-19T18:01:53.696Z,78.05
2018-10-19T18:04:22.426Z,78.58
2018-10-19T18:06:51.351Z,78.32
2018-10-19T18:09:20.043Z,77.92
2018-10-19T18:11:48.702Z,78.41
2018-10-19T18:14:17.416Z,77.96
2018-10-19T18:16:46.275Z,78.18
2018-10-19T18:19:17.404Z,78.28
2018-10-19T18:21:47.034Z,78.22
2018-10-19T18:24:16.412Z,78.72
2018-10-19T18:26:45.319Z,78.05
2018-10-19T18:29:14.682Z,78.56
2018-10-19T18:31:44.912Z,78.99
2018-10-19T18:34:14.953Z,79.93
2018-10-19T18:36:44.521Z,79.24
2018-10-19T18:39:14.617Z,79.33
2018-10-19T18:41:44.513Z,79.71
2018-10-19T18:44:14.555Z,79.61
2018-10-19T18:46:44.529Z,80.58
2018-10-19T18:49:14.295Z,80.22
2018-10-19T18:51:43.421Z,80.45
2018-10-19T18:54:12.900Z,81.13
2018-10-19T18:56:42.237Z,80.55
2018-10-19T18:59:11.125Z,81.33
2018-10-19T19:01:42.006Z,81.17
2018-10-19T19:04:10.822Z,80.84
2018-10-19T19:06:40.585Z,80.84
2018-10-19T19:09:13.051Z,81.09
2018-10-19T19:11:41.829Z,81.18
2018-10-19T19:14:10.640Z,80.93
2018-10-19T19:16:39.709Z,81.53
2018-10-19T19:19:08.343Z,82.13
2018-10-19T19:21:37.460Z,81.81
2018-10-19T19:24:12.203Z,81.29
2018-10-19T19:26:41.697Z,81.99
2018-10-19T19:29:10.440Z,81.86
2018-10-19T19:31:41.729Z,83.18
2018-10-19T19:34:16.389Z,82.84
2018-10-19T19:36:46.049Z,83.39
2018-10-19T19:41:50.923Z,83.62
2018-10-19T19:44:21.629Z,83.51
2018-10-19T19:46:51.496Z,83.34
2018-10-19T19:49:27.232Z,83.48
2018-10-19T19:51:58.053Z,83.87
2018-10-19T19:54:28.462Z,83.81
2018-10-19T19:56:57.538Z,84.28
2018-10-19T19:59:26.369Z,83.23
2018-10-19T20:01:55.314Z,83.41
2018-10-19T20:04:24.596Z,83.29
2018-10-19T20:06:53.384Z,83.38
2018-10-19T20:09:23.139Z,83.73
2018-10-19T20:11:52.106Z,84.23
2018-10-19T20:14:21.664Z,84.51
2018-10-19T20:16:50.927Z,84.74
2018-10-19T20:19:19.597Z,84.98
2018-10-19T20:21:48.187Z,84.63
2018-10-19T20:24:16.878Z,85.85
2018-10-19T20:26:45.655Z,86.79
2018-10-19T20:29:17.482Z,86.36
2018-10-19T20:31:54.411Z,86.57
2018-10-19T20:34:24.399Z,86.72
2018-10-19T20:36:58.476Z,86.43
2018-10-19T20:39:28.162Z,86.61
2018-10-19T20:42:00.899Z,86.51
2018-10-19T20:44:29.523Z,85.92
2018-10-19T20:47:02.984Z,86.04
2018-10-19T20:49:32.079Z,85.87
2018-10-19T20:52:00.574Z,86.13
2018-10-19T20:54:29.182Z,86.11
2018-10-19T20:56:57.846Z,86.39
2018-10-19T20:59:26.441Z,85.96
2018-10-19T21:01:55.209Z,86.79
2018-10-19T21:04:24.911Z,86.77
2018-10-19T21:06:53.639Z,86.15
2018-10-19T21:09:22.344Z,86.21
2018-10-19T21:11:51.227Z,86.28
2018-10-19T21:14:20.512Z,86.35
2018-10-19T21:16:49.048Z,87.05
2018-10-19T21:19:17.755Z,86.99
2018-10-19T21:21:46.316Z,87.39
2018-10-19T21:24:15.033Z,87.78
2018-10-19T21:26:43.617Z,87.60
2018-10-19T21:29:13.088Z,87.54
2018-10-19T21:31:41.911Z,86.95
2018-10-19T21:34:10.595Z,87.02
2018-10-19T21:36:39.311Z,87.58
2018-10-19T21:39:10.937Z,86.89
2018-10-19T21:41:39.512Z,87.14
2018-10-19T21:44:08.245Z,87.68
2018-10-19T21:46:36.933Z,88.33
2018-10-19T21:49:05.779Z,89.28
2018-10-19T21:51:34.393Z,88.07
2018-10-19T21:54:02.861Z,88.15
2018-10-19T21:56:31.544Z,88.23
2018-10-19T21:59:17.671Z,87.52
2018-10-19T22:01:46.094Z,87.97
2018-10-19T22:04:14.621Z,87.62
2018-10-19T22:06:43.219Z,88.23
2018-10-19T22:09:13.638Z,89.04
2018-10-19T22:11:42.668Z,90.34
2018-10-19T22:14:11.488Z,90.93
2018-10-19T22:16:41.489Z,90.21
2018-10-19T22:19:11.149Z,90.34
2018-10-19T22:21:40.462Z,90.36
2018-10-19T22:24:10.108Z,90.46
2018-10-19T22:26:39.007Z,91.12
2018-10-19T22:29:08.408Z,91.72
2018-10-19T22:31:36.986Z,91.60
2018-10-19T22:34:06.859Z,91.05
2018-10-19T22:36:35.694Z,90.74
2018-10-19T22:39:04.795Z,91.29
2018-10-19T22:41:33.326Z,90.87
2018-10-19T22:44:01.799Z,91.25
2018-10-19T22:46:30.404Z,91.64
2018-10-19T22:48:58.935Z,90.95
2018-10-19T22:51:27.582Z,91.01
2018-10-19T22:53:56.825Z,91.58
2018-10-19T22:56:26.397Z,91.54
2018-10-19T22:58:56.344Z,91.55
2018-10-19T23:01:26.068Z,91.56
2018-10-19T23:03:54.796Z,91.72
2018-10-19T23:06:23.447Z,91.45
2018-10-19T23:08:53.181Z,92.04
2018-10-19T23:11:22.122Z,91.93
2018-10-19T23:13:50.969Z,91.50
2018-10-19T23:16:19.986Z,91.84
2018-10-19T23:18:49.168Z,92.22
2018-10-19T23:21:18.468Z,92.37
2018-10-19T23:23:47.293Z,91.60
2018-10-19T23:26:16.061Z,92.15
2018-10-19T23:28:44.613Z,91.77
2018-10-19T23:31:13.442Z,92.01
2018-10-19T23:33:42.093Z,91.90
2018-10-19T23:36:10.782Z,92.58
2018-10-19T23:38:39.530Z,92.43
2018-10-19T23:41:08.946Z,92.62
2018-10-19T23:43:37.875Z,92.05
2018-10-19T23:46:06.835Z,92.56
2018-10-19T23:48:35.682Z,92.77
2018-10-19T23:51:04.918Z,93.81
2018-10-19T23:53:33.872Z,93.42
2018-10-19T23:56:02.783Z,93.66
2018-10-19T23:58:31.258Z,94.06
